createdAt,value
2022-12-31T00:02:29.379Z,3.40
2022-12-31T00:07:51.617Z,2.03
2022-12-31T00:13:14.641Z,2.10
2022-12-31T00:18:37.176Z,1.90
2022-12-31T00:23:59.865Z,2.07
2022-12-31T00:29:22.355Z,2.83
2022-12-31T00:34:44.887Z,1.50
2022-12-31T00:40:07.787Z,1.03
2022-12-31T00:45:30.132Z,1.30
2022-12-31T00:50:53.290Z,1.10
2022-12-31T00:56:27.744Z,1.00
2022-12-31T01:01:50.332Z,1.20
2022-12-31T01:07:12.543Z,0.80
2022-12-31T01:12:34.876Z,0.90
2022-12-31T01:17:57.136Z,0.90
2022-12-31T01:23:19.151Z,2.97
2022-12-31T01:28:44.750Z,2.90
2022-12-31T01:34:08.309Z,0.90
2022-12-31T01:39:30.696Z,1.00
2022-12-31T01:44:55.448Z,1.20
2022-12-31T01:50:31.876Z,0.80
2022-12-31T01:55:59.423Z,1.00
2022-12-31T02:01:26.554Z,0.83
2022-12-31T02:07:01.620Z,1.07
2022-12-31T02:12:24.250Z,0.90
2022-12-31T02:18:15.539Z,0.90
2022-12-31T02:24:02.332Z,0.83
2022-12-31T02:30:00.531Z,0.80
2022-12-31T02:35:46.860Z,0.70
2022-12-31T02:41:36.182Z,0.60
2022-12-31T02:47:20.157Z,0.60
2022-12-31T02:53:08.241Z,1.17
2022-12-31T02:59:32.873Z,0.70
2022-12-31T03:04:56.877Z,0.70
2022-12-31T03:10:19.445Z,0.60
2022-12-31T03:15:41.746Z,0.53
2022-12-31T03:21:22.652Z,1.00
2022-12-31T03:26:45.194Z,0.40
2022-12-31T03:32:07.848Z,0.40
2022-12-31T03:37:30.193Z,0.40
2022-12-31T03:42:52.751Z,0.50
2022-12-31T03:48:15.339Z,0.70
2022-12-31T03:53:37.693Z,0.60
2022-12-31T03:58:59.887Z,2.57
2022-12-31T04:04:22.681Z,0.47
2022-12-31T04:09:45.105Z,1.73
2022-12-31T04:15:09.289Z,1.77
2022-12-31T04:20:31.483Z,0.30
2022-12-31T04:25:54.219Z,0.60
2022-12-31T04:31:16.588Z,0.60
2022-12-31T04:36:38.774Z,0.43
2022-12-31T04:42:03.980Z,0.30
2022-12-31T04:47:26.266Z,0.63
2022-12-31T04:52:48.752Z,0.33
2022-12-31T04:58:10.975Z,0.50
2022-12-31T05:03:34.208Z,0.40
2022-12-31T05:08:56.536Z,0.40
2022-12-31T05:14:19.209Z,1.47
2022-12-31T05:19:41.726Z,0.67
2022-12-31T05:25:04.625Z,0.30
2022-12-31T05:30:26.896Z,0.40
2022-12-31T05:35:49.734Z,0.50
2022-12-31T05:41:12.222Z,0.60
2022-12-31T05:46:34.402Z,0.60
2022-12-31T05:51:56.880Z,0.53
2022-12-31T05:57:21.153Z,0.50
2022-12-31T06:02:43.366Z,0.50
2022-12-31T06:08:05.474Z,0.50
2022-12-31T06:13:27.944Z,0.50
2022-12-31T06:18:50.949Z,0.63
2022-12-31T06:24:13.402Z,0.60
2022-12-31T06:29:35.775Z,0.93
2022-12-31T06:34:58.240Z,1.50
2022-12-31T06:40:20.737Z,0.50
2022-12-31T06:45:42.933Z,0.70
2022-12-31T06:51:11.892Z,0.93
2022-12-31T06:56:37.516Z,0.80
2022-12-31T07:02:29.646Z,0.77
2022-12-31T07:08:24.567Z,0.70
2022-12-31T07:14:20.881Z,0.70
2022-12-31T07:19:57.281Z,0.57
2022-12-31T07:25:20.575Z,0.40
2022-12-31T07:31:27.634Z,0.50
2022-12-31T07:37:01.504Z,1.40
2022-12-31T07:42:43.961Z,2.43
2022-12-31T07:48:21.853Z,0.37
2022-12-31T07:53:44.054Z,0.60
2022-12-31T07:59:25.348Z,0.50
2022-12-31T08:04:47.647Z,0.43
2022-12-31T08:10:31.203Z,0.53
2022-12-31T08:15:54.302Z,0.50
2022-12-31T08:21:31.021Z,0.60
2022-12-31T08:27:09.656Z,0.43
2022-12-31T08:32:39.488Z,0.50
2022-12-31T08:38:25.939Z,3.10
2022-12-31T08:43:56.161Z,2.50
2022-12-31T08:49:19.087Z,0.50
2022-12-31T08:54:41.539Z,0.93
2022-12-31T09:00:17.037Z,0.53
2022-12-31T09:05:58.350Z,0.63
2022-12-31T09:11:30.969Z,0.43
2022-12-31T09:16:56.022Z,0.50
2022-12-31T09:22:18.966Z,0.93
2022-12-31T09:27:52.659Z,0.57
2022-12-31T09:33:31.777Z,0.47
2022-12-31T09:39:06.384Z,0.97
2022-12-31T09:45:02.289Z,1.50
2022-12-31T09:50:33.262Z,0.70
2022-12-31T09:56:04.943Z,0.63
2022-12-31T10:02:02.619Z,0.67
2022-12-31T10:07:33.769Z,0.60
2022-12-31T10:13:07.040Z,0.73
2022-12-31T10:18:35.567Z,2.67
2022-12-31T10:24:40.125Z,0.63
2022-12-31T10:30:11.929Z,1.02
2022-12-31T10:36:09.377Z,1.10
2022-12-31T10:42:05.099Z,0.50
2022-12-31T10:47:54.593Z,3.65
2022-12-31T10:54:05.055Z,1.83
2022-12-31T10:59:49.273Z,0.63
2022-12-31T11:05:32.715Z,3.63
2022-12-31T11:11:10.190Z,0.60
2022-12-31T11:17:02.421Z,1.60
2022-12-31T11:22:46.617Z,1.23
2022-12-31T11:28:24.028Z,1.85
2022-12-31T11:34:01.473Z,1.58
2022-12-31T11:39:36.405Z,0.63
2022-12-31T11:45:17.324Z,1.97
2022-12-31T11:51:07.415Z,2.58
2022-12-31T11:56:37.754Z,1.83
2022-12-31T12:02:14.393Z,1.10
2022-12-31T12:07:36.483Z,0.83
2022-12-31T12:13:00.122Z,0.80
2022-12-31T12:18:30.292Z,0.60
2022-12-31T12:24:23.594Z,0.82
2022-12-31T12:29:47.488Z,0.80
2022-12-31T12:35:20.131Z,2.38
2022-12-31T12:40:52.339Z,0.80
2022-12-31T12:46:19.957Z,2.63
2022-12-31T12:52:16.796Z,2.08
2022-12-31T12:58:18.851Z,8.52
2022-12-31T13:04:35.609Z,1.75
2022-12-31T13:10:01.325Z,0.82
2022-12-31T13:15:37.087Z,1.42
2022-12-31T13:21:08.080Z,2.55
2022-12-31T13:26:57.477Z,0.73
2022-12-31T13:32:29.304Z,0.60
2022-12-31T13:38:04.779Z,3.08
2022-12-31T13:43:54.790Z,2.80
2022-12-31T13:49:23.432Z,1.70
2022-12-31T13:55:36.161Z,0.63
2022-12-31T14:01:41.153Z,1.90
2022-12-31T14:07:09.560Z,0.80
2022-12-31T14:13:05.629Z,1.27
2022-12-31T14:18:40.369Z,0.73
2022-12-31T14:24:15.926Z,0.95
2022-12-31T14:30:08.160Z,3.45
2022-12-31T14:35:57.943Z,3.30
2022-12-31T14:41:28.875Z,2.15
2022-12-31T14:47:18.888Z,1.38
2022-12-31T14:52:56.355Z,1.58
2022-12-31T14:58:38.161Z,0.95
2022-12-31T15:04:00.443Z,1.38
2022-12-31T15:09:56.691Z,2.70
2022-12-31T15:15:43.655Z,1.60
2022-12-31T15:21:27.844Z,1.55
2022-12-31T15:26:54.145Z,2.25
2022-12-31T15:32:20.424Z,1.00
2022-12-31T15:37:42.952Z,1.13
2022-12-31T15:43:15.086Z,3.47
2022-12-31T15:49:02.016Z,2.60
2022-12-31T15:54:42.390Z,3.17
2022-12-31T16:00:17.021Z,2.35
2022-12-31T16:05:39.469Z,2.63
2022-12-31T16:11:05.101Z,1.60
2022-12-31T16:16:30.559Z,2.00
2022-12-31T16:21:57.007Z,3.83
2022-12-31T16:27:19.360Z,1.80
2022-12-31T16:32:42.169Z,1.88
2022-12-31T16:38:16.210Z,1.40
2022-12-31T16:43:40.423Z,2.25
2022-12-31T16:49:19.970Z,2.50
2022-12-31T16:54:46.904Z,2.30
2022-12-31T17:00:16.726Z,1.63
2022-12-31T17:06:06.153Z,3.95
2022-12-31T17:11:34.352Z,5.25
2022-12-31T17:17:08.699Z,3.63
2022-12-31T17:22:37.000Z,2.28
2022-12-31T17:28:20.577Z,1.38
2022-12-31T17:33:43.079Z,3.97
2022-12-31T17:39:19.953Z,1.90
2022-12-31T17:44:44.775Z,1.70
2022-12-31T17:50:18.713Z,1.75
2022-12-31T17:55:42.922Z,2.78
2022-12-31T18:01:07.438Z,3.85
2022-12-31T18:06:30.040Z,1.63
2022-12-31T18:11:56.823Z,1.20
2022-12-31T18:17:22.249Z,4.63
2022-12-31T18:22:45.384Z,1.70
2022-12-31T18:28:09.561Z,2.92
2022-12-31T18:33:32.124Z,1.98
2022-12-31T18:38:54.717Z,3.40
2022-12-31T18:44:17.743Z,2.40
2022-12-31T18:49:41.239Z,2.95
2022-12-31T18:55:21.778Z,4.85
2022-12-31T19:00:45.986Z,2.30
2022-12-31T19:06:09.034Z,3.95
2022-12-31T19:11:33.066Z,2.50
2022-12-31T19:16:55.987Z,3.72
2022-12-31T19:22:18.416Z,5.18
2022-12-31T19:27:40.711Z,2.85
2022-12-31T19:33:03.336Z,4.28
2022-12-31T19:38:26.980Z,4.45
2022-12-31T19:43:49.306Z,3.88
2022-12-31T19:49:12.993Z,3.77
2022-12-31T19:54:35.562Z,4.93
2022-12-31T19:59:57.818Z,2.95
2022-12-31T20:05:20.538Z,9.65
2022-12-31T20:10:44.057Z,3.95
2022-12-31T20:16:12.676Z,5.35
2022-12-31T20:21:35.079Z,4.35
2022-12-31T20:26:57.988Z,2.30
2022-12-31T20:32:20.681Z,2.70
2022-12-31T20:37:43.310Z,4.85
2022-12-31T20:43:05.616Z,9.82
2022-12-31T20:48:28.276Z,5.97
2022-12-31T20:54:02.730Z,2.80
2022-12-31T20:59:25.258Z,10.40
2022-12-31T21:04:47.553Z,7.28
2022-12-31T21:10:10.075Z,15.00
2022-12-31T21:15:32.502Z,9.32
2022-12-31T21:20:54.835Z,9.10
2022-12-31T21:26:17.628Z,4.72
2022-12-31T21:31:40.271Z,6.93
2022-12-31T21:37:02.700Z,3.30
2022-12-31T21:42:25.233Z,2.17
2022-12-31T21:48:06.285Z,3.70
2022-12-31T21:53:36.192Z,2.65
2022-12-31T21:59:17.760Z,3.70
2022-12-31T22:10:22.094Z,3.08
2022-12-31T22:15:52.562Z,2.88
2022-12-31T22:21:20.274Z,3.40
2022-12-31T22:26:46.570Z,3.57
2022-12-31T22:32:09.414Z,5.28
2022-12-31T22:37:57.192Z,10.10
2022-12-31T22:43:15.284Z,3.85
2022-12-31T22:48:38.500Z,4.88
2022-12-31T22:54:00.712Z,5.80
2022-12-31T22:59:24.554Z,3.08
2022-12-31T23:04:46.921Z,11.60
2022-12-31T23:10:29.261Z,54.17
2022-12-31T23:16:09.741Z,82.27
2022-12-31T23:21:50.920Z,42.10
2022-12-31T23:27:13.485Z,21.13
2022-12-31T23:32:36.145Z,31.87
2022-12-31T23:37:58.763Z,54.87
2022-12-31T23:43:22.552Z,42.77
2022-12-31T23:48:44.861Z,19.97
2022-12-31T23:54:07.808Z,26.17
2022-12-31T23:59:30.383Z,17.97
